sensor_id;sensor_type;location;lat;lon;timestamp;P1;durP1;ratioP1;P2;durP2;ratioP2
10458;SDS011;5277;48.722;8.736;2023-10-31T00:05:07;4.03;;;0.82;;
10458;SDS011;5277;48.722;8.736;2023-10-31T00:08:26;1.02;;;0.55;;
10458;SDS011;5277;48.722;8.736;2023-10-31T00:11:16;1.08;;;0.73;;
10458;SDS011;5277;48.722;8.736;2023-10-31T00:13:50;5.10;;;0.70;;
10458;SDS011;5277;48.722;8.736;2023-10-31T00:16:38;7.10;;;1.90;;
10458;SDS011;5277;48.722;8.736;2023-10-31T00:19:32;3.05;;;0.50;;
10458;SDS011;5277;48.722;8.736;2023-10-31T00:22:11;2.30;;;0.52;;
10458;SDS011;5277;48.722;8.736;2023-10-31T00:24:42;5.88;;;0.70;;
10458;SDS011;5277;48.722;8.736;2023-10-31T00:30:08;3.75;;;0.50;;
10458;SDS011;5277;48.722;8.736;2023-10-31T00:32:57;0.70;;;0.40;;
10458;SDS011;5277;48.722;8.736;2023-10-31T00:35:32;5.75;;;0.63;;
10458;SDS011;5277;48.722;8.736;2023-10-31T00:38:03;5.47;;;0.70;;
10458;SDS011;5277;48.722;8.736;2023-10-31T00:40:31;3.30;;;0.63;;
10458;SDS011;5277;48.722;8.736;2023-10-31T00:43:06;5.07;;;0.52;;
10458;SDS011;5277;48.722;8.736;2023-10-31T00:45:55;1.13;;;0.52;;
10458;SDS011;5277;48.722;8.736;2023-10-31T00:48:24;5.90;;;0.90;;
10458;SDS011;5277;48.722;8.736;2023-10-31T00:51:09;4.15;;;0.68;;
10458;SDS011;5277;48.722;8.736;2023-10-31T00:54:01;5.18;;;0.63;;
10458;SDS011;5277;48.722;8.736;2023-10-31T00:56:36;2.88;;;0.75;;
10458;SDS011;5277;48.722;8.736;2023-10-31T00:59:08;0.70;;;0.38;;
10458;SDS011;5277;48.722;8.736;2023-10-31T01:01:37;5.60;;;0.70;;
10458;SDS011;5277;48.722;8.736;2023-10-31T01:04:24;2.17;;;0.55;;
10458;SDS011;5277;48.722;8.736;2023-10-31T01:07:05;3.28;;;0.52;;
10458;SDS011;5277;48.722;8.736;2023-10-31T01:09:54;4.78;;;0.75;;
10458;SDS011;5277;48.722;8.736;2023-10-31T01:12:28;3.75;;;0.60;;
10458;SDS011;5277;48.722;8.736;2023-10-31T01:14:59;3.78;;;0.60;;
10458;SDS011;5277;48.722;8.736;2023-10-31T01:17:36;1.63;;;0.70;;
10458;SDS011;5277;48.722;8.736;2023-10-31T01:20:19;1.20;;;0.50;;
10458;SDS011;5277;48.722;8.736;2023-10-31T01:22:57;1.23;;;0.50;;
10458;SDS011;5277;48.722;8.736;2023-10-31T01:25:32;1.50;;;0.50;;
10458;SDS011;5277;48.722;8.736;2023-10-31T01:28:16;2.03;;;0.65;;
10458;SDS011;5277;48.722;8.736;2023-10-31T01:30:51;2.22;;;0.70;;
10458;SDS011;5277;48.722;8.736;2023-10-31T01:33:19;1.70;;;0.90;;
10458;SDS011;5277;48.722;8.736;2023-10-31T01:36:10;2.60;;;0.57;;
10458;SDS011;5277;48.722;8.736;2023-10-31T01:38:56;0.93;;;0.50;;
10458;SDS011;5277;48.722;8.736;2023-10-31T01:41:25;3.67;;;0.63;;
10458;SDS011;5277;48.722;8.736;2023-10-31T01:44:17;2.42;;;0.65;;
10458;SDS011;5277;48.722;8.736;2023-10-31T01:53:16;2.58;;;0.47;;
10458;SDS011;5277;48.722;8.736;2023-10-31T01:55:59;1.52;;;0.35;;
10458;SDS011;5277;48.722;8.736;2023-10-31T01:58:56;1.92;;;0.60;;
10458;SDS011;5277;48.722;8.736;2023-10-31T02:01:27;1.27;;;0.70;;
10458;SDS011;5277;48.722;8.736;2023-10-31T02:04:06;5.60;;;0.75;;
10458;SDS011;5277;48.722;8.736;2023-10-31T02:06:47;3.45;;;0.90;;
10458;SDS011;5277;48.722;8.736;2023-10-31T02:09:32;6.75;;;0.60;;
10458;SDS011;5277;48.722;8.736;2023-10-31T02:12:11;6.35;;;0.82;;
10458;SDS011;5277;48.722;8.736;2023-10-31T02:15:14;1.48;;;0.70;;
10458;SDS011;5277;48.722;8.736;2023-10-31T02:17:54;1.45;;;0.65;;
10458;SDS011;5277;48.722;8.736;2023-10-31T02:20:28;4.28;;;0.90;;
10458;SDS011;5277;48.722;8.736;2023-10-31T02:23:18;2.35;;;0.70;;
10458;SDS011;5277;48.722;8.736;2023-10-31T02:26:31;5.05;;;1.23;;
10458;SDS011;5277;48.722;8.736;2023-10-31T02:29:30;3.97;;;1.80;;
10458;SDS011;5277;48.722;8.736;2023-10-31T02:32:06;3.88;;;1.20;;
10458;SDS011;5277;48.722;8.736;2023-10-31T02:34:37;5.15;;;0.77;;
10458;SDS011;5277;48.722;8.736;2023-10-31T02:39:51;0.65;;;0.40;;
10458;SDS011;5277;48.722;8.736;2023-10-31T02:42:44;7.95;;;1.00;;
10458;SDS011;5277;48.722;8.736;2023-10-31T02:45:15;4.55;;;0.60;;
10458;SDS011;5277;48.722;8.736;2023-10-31T02:47:49;2.13;;;0.60;;
10458;SDS011;5277;48.722;8.736;2023-10-31T02:50:15;1.50;;;0.73;;
10458;SDS011;5277;48.722;8.736;2023-10-31T02:52:54;6.45;;;0.95;;
10458;SDS011;5277;48.722;8.736;2023-10-31T02:55:20;5.65;;;0.80;;
10458;SDS011;5277;48.722;8.736;2023-10-31T02:57:51;3.63;;;0.80;;
10458;SDS011;5277;48.722;8.736;2023-10-31T03:00:24;0.90;;;0.70;;
10458;SDS011;5277;48.722;8.736;2023-10-31T03:03:04;3.55;;;1.00;;
10458;SDS011;5277;48.722;8.736;2023-10-31T03:05:47;0.80;;;0.50;;
10458;SDS011;5277;48.722;8.736;2023-10-31T03:08:32;7.60;;;0.95;;
10458;SDS011;5277;48.722;8.736;2023-10-31T03:11:00;4.18;;;0.80;;
10458;SDS011;5277;48.722;8.736;2023-10-31T03:13:51;8.80;;;0.90;;
10458;SDS011;5277;48.722;8.736;2023-10-31T03:16:43;0.82;;;0.70;;
10458;SDS011;5277;48.722;8.736;2023-10-31T03:19:11;7.30;;;0.80;;
10458;SDS011;5277;48.722;8.736;2023-10-31T03:21:55;0.75;;;0.63;;
10458;SDS011;5277;48.722;8.736;2023-10-31T03:24:39;0.88;;;0.80;;
10458;SDS011;5277;48.722;8.736;2023-10-31T03:27:31;0.70;;;0.60;;
10458;SDS011;5277;48.722;8.736;2023-10-31T03:30:11;3.03;;;0.98;;
10458;SDS011;5277;48.722;8.736;2023-10-31T03:32:37;3.65;;;0.60;;
10458;SDS011;5277;48.722;8.736;2023-10-31T03:35:47;5.45;;;1.10;;
10458;SDS011;5277;48.722;8.736;2023-10-31T03:38:23;1.02;;;0.68;;
10458;SDS011;5277;48.722;8.736;2023-10-31T03:41:08;2.35;;;0.60;;
10458;SDS011;5277;48.722;8.736;2023-10-31T03:43:50;6.57;;;0.90;;
10458;SDS011;5277;48.722;8.736;2023-10-31T03:49:43;1.02;;;0.82;;
10458;SDS011;5277;48.722;8.736;2023-10-31T03:52:24;3.90;;;0.88;;
10458;SDS011;5277;48.722;8.736;2023-10-31T03:54:55;1.52;;;0.60;;
10458;SDS011;5277;48.722;8.736;2023-10-31T03:57:33;2.50;;;0.80;;
10458;SDS011;5277;48.722;8.736;2023-10-31T04:00:01;5.25;;;0.88;;
10458;SDS011;5277;48.722;8.736;2023-10-31T04:02:36;3.30;;;0.70;;
10458;SDS011;5277;48.722;8.736;2023-10-31T04:05:23;4.72;;;0.70;;
10458;SDS011;5277;48.722;8.736;2023-10-31T04:07:59;0.82;;;0.70;;
10458;SDS011;5277;48.722;8.736;2023-10-31T04:10:28;4.80;;;0.90;;
10458;SDS011;5277;48.722;8.736;2023-10-31T04:12:56;3.17;;;0.70;;
10458;SDS011;5277;48.722;8.736;2023-10-31T04:15:34;5.10;;;0.80;;
10458;SDS011;5277;48.722;8.736;2023-10-31T04:18:02;3.75;;;0.82;;
10458;SDS011;5277;48.722;8.736;2023-10-31T04:20:31;2.90;;;0.93;;
10458;SDS011;5277;48.722;8.736;2023-10-31T04:23:08;1.77;;;0.70;;
10458;SDS011;5277;48.722;8.736;2023-10-31T04:25:36;1.35;;;0.70;;
10458;SDS011;5277;48.722;8.736;2023-10-31T04:28:26;0.55;;;0.55;;
10458;SDS011;5277;48.722;8.736;2023-10-31T04:34:11;4.15;;;0.82;;
10458;SDS011;5277;48.722;8.736;2023-10-31T04:36:52;1.27;;;0.82;;
10458;SDS011;5277;48.722;8.736;2023-10-31T04:39:40;4.05;;;0.95;;
10458;SDS011;5277;48.722;8.736;2023-10-31T04:42:11;4.00;;;0.93;;
10458;SDS011;5277;48.722;8.736;2023-10-31T04:44:56;5.03;;;0.90;;
10458;SDS011;5277;48.722;8.736;2023-10-31T04:48:03;3.67;;;0.80;;
10458;SDS011;5277;48.722;8.736;2023-10-31T04:50:43;3.10;;;0.52;;
10458;SDS011;5277;48.722;8.736;2023-10-31T04:53:34;0.47;;;0.40;;
10458;SDS011;5277;48.722;8.736;2023-10-31T04:56:16;0.77;;;0.52;;
10458;SDS011;5277;48.722;8.736;2023-10-31T04:58:50;8.35;;;0.80;;
10458;SDS011;5277;48.722;8.736;2023-10-31T05:01:16;1.67;;;0.65;;
10458;SDS011;5277;48.722;8.736;2023-10-31T05:04:11;1.40;;;0.50;;
10458;SDS011;5277;48.722;8.736;2023-10-31T05:06:43;5.38;;;0.70;;
10458;SDS011;5277;48.722;8.736;2023-10-31T05:09:20;2.78;;;0.93;;
10458;SDS011;5277;48.722;8.736;2023-10-31T05:12:19;7.25;;;0.82;;
10458;SDS011;5277;48.722;8.736;2023-10-31T05:18:09;1.83;;;0.63;;
10458;SDS011;5277;48.722;8.736;2023-10-31T05:20:52;5.10;;;0.80;;
10458;SDS011;5277;48.722;8.736;2023-10-31T05:23:18;5.85;;;0.95;;
10458;SDS011;5277;48.722;8.736;2023-10-31T05:25:52;2.20;;;0.63;;
10458;SDS011;5277;48.722;8.736;2023-10-31T05:32:36;4.47;;;0.65;;
10458;SDS011;5277;48.722;8.736;2023-10-31T05:39:22;5.00;;;0.90;;
10458;SDS011;5277;48.722;8.736;2023-10-31T05:49:10;3.83;;;0.77;;
10458;SDS011;5277;48.722;8.736;2023-10-31T05:54:46;6.18;;;0.90;;
10458;SDS011;5277;48.722;8.736;2023-10-31T05:57:14;4.35;;;0.70;;
10458;SDS011;5277;48.722;8.736;2023-10-31T05:59:39;3.95;;;0.50;;
10458;SDS011;5277;48.722;8.736;2023-10-31T06:02:08;2.83;;;0.57;;
10458;SDS011;5277;48.722;8.736;2023-10-31T06:04:33;2.13;;;0.70;;
10458;SDS011;5277;48.722;8.736;2023-10-31T06:06:59;5.45;;;0.70;;
10458;SDS011;5277;48.722;8.736;2023-10-31T06:09:24;5.00;;;0.60;;
10458;SDS011;5277;48.722;8.736;2023-10-31T06:11:50;4.40;;;0.77;;
10458;SDS011;5277;48.722;8.736;2023-10-31T06:14:15;2.05;;;0.70;;
10458;SDS011;5277;48.722;8.736;2023-10-31T06:16:41;3.58;;;0.70;;
10458;SDS011;5277;48.722;8.736;2023-10-31T06:19:07;2.97;;;0.88;;
10458;SDS011;5277;48.722;8.736;2023-10-31T06:21:33;5.13;;;0.90;;
10458;SDS011;5277;48.722;8.736;2023-10-31T06:23:59;3.05;;;0.50;;
10458;SDS011;5277;48.722;8.736;2023-10-31T06:26:24;5.50;;;0.75;;
10458;SDS011;5277;48.722;8.736;2023-10-31T06:28:50;5.97;;;0.90;;
10458;SDS011;5277;48.722;8.736;2023-10-31T06:31:16;5.65;;;0.93;;
10458;SDS011;5277;48.722;8.736;2023-10-31T06:33:41;1.63;;;0.70;;
10458;SDS011;5277;48.722;8.736;2023-10-31T06:36:09;0.85;;;0.63;;
10458;SDS011;5277;48.722;8.736;2023-10-31T06:38:35;0.73;;;0.60;;
10458;SDS011;5277;48.722;8.736;2023-10-31T06:41:04;4.00;;;1.25;;
10458;SDS011;5277;48.722;8.736;2023-10-31T06:43:29;3.95;;;1.00;;
10458;SDS011;5277;48.722;8.736;2023-10-31T06:45:55;3.28;;;0.77;;
10458;SDS011;5277;48.722;8.736;2023-10-31T06:48:22;1.65;;;0.80;;
10458;SDS011;5277;48.722;8.736;2023-10-31T06:50:50;1.15;;;0.77;;
10458;SDS011;5277;48.722;8.736;2023-10-31T06:53:15;3.00;;;0.98;;
10458;SDS011;5277;48.722;8.736;2023-10-31T06:55:41;3.13;;;1.48;;
10458;SDS011;5277;48.722;8.736;2023-10-31T06:58:06;4.75;;;0.80;;
10458;SDS011;5277;48.722;8.736;2023-10-31T07:00:32;2.35;;;1.00;;
10458;SDS011;5277;48.722;8.736;2023-10-31T07:02:58;0.95;;;0.75;;
10458;SDS011;5277;48.722;8.736;2023-10-31T07:05:24;1.30;;;0.80;;
10458;SDS011;5277;48.722;8.736;2023-10-31T07:07:50;4.82;;;0.95;;
10458;SDS011;5277;48.722;8.736;2023-10-31T07:10:15;1.55;;;0.90;;
10458;SDS011;5277;48.722;8.736;2023-10-31T07:12:41;1.30;;;0.90;;
10458;SDS011;5277;48.722;8.736;2023-10-31T07:15:07;1.65;;;1.10;;
10458;SDS011;5277;48.722;8.736;2023-10-31T07:17:32;5.82;;;1.33;;
10458;SDS011;5277;48.722;8.736;2023-10-31T07:19:58;2.83;;;0.95;;
10458;SDS011;5277;48.722;8.736;2023-10-31T07:22:24;1.73;;;1.08;;
10458;SDS011;5277;48.722;8.736;2023-10-31T07:24:52;6.97;;;1.42;;
10458;SDS011;5277;48.722;8.736;2023-10-31T07:27:18;2.10;;;1.20;;
10458;SDS011;5277;48.722;8.736;2023-10-31T07:29:49;1.63;;;1.10;;
10458;SDS011;5277;48.722;8.736;2023-10-31T07:32:15;1.45;;;1.20;;
10458;SDS011;5277;48.722;8.736;2023-10-31T07:34:41;1.77;;;1.20;;
10458;SDS011;5277;48.722;8.736;2023-10-31T07:37:09;4.97;;;1.90;;
10458;SDS011;5277;48.722;8.736;2023-10-31T07:39:35;3.90;;;1.92;;
10458;SDS011;5277;48.722;8.736;2023-10-31T07:42:00;3.08;;;2.10;;
10458;SDS011;5277;48.722;8.736;2023-10-31T07:44:26;3.20;;;1.90;;
10458;SDS011;5277;48.722;8.736;2023-10-31T07:46:51;3.42;;;1.65;;
10458;SDS011;5277;48.722;8.736;2023-10-31T07:49:17;8.02;;;1.60;;
10458;SDS011;5277;48.722;8.736;2023-10-31T07:51:43;5.05;;;1.30;;
10458;SDS011;5277;48.722;8.736;2023-10-31T07:54:08;4.85;;;1.45;;
10458;SDS011;5277;48.722;8.736;2023-10-31T07:56:34;2.58;;;1.20;;
10458;SDS011;5277;48.722;8.736;2023-10-31T07:59:01;4.63;;;1.35;;
10458;SDS011;5277;48.722;8.736;2023-10-31T08:01:26;3.90;;;1.10;;
10458;SDS011;5277;48.722;8.736;2023-10-31T08:03:53;1.63;;;1.02;;
10458;SDS011;5277;48.722;8.736;2023-10-31T08:06:19;3.80;;;1.08;;
10458;SDS011;5277;48.722;8.736;2023-10-31T08:08:44;2.55;;;1.40;;
10458;SDS011;5277;48.722;8.736;2023-10-31T08:11:10;1.80;;;1.00;;
10458;SDS011;5277;48.722;8.736;2023-10-31T08:13:36;3.67;;;1.38;;
10458;SDS011;5277;48.722;8.736;2023-10-31T08:16:03;3.72;;;1.30;;
10458;SDS011;5277;48.722;8.736;2023-10-31T08:18:30;2.10;;;1.17;;
10458;SDS011;5277;48.722;8.736;2023-10-31T08:20:58;2.53;;;1.40;;
10458;SDS011;5277;48.722;8.736;2023-10-31T08:23:24;4.95;;;1.70;;
10458;SDS011;5277;48.722;8.736;2023-10-31T08:25:50;6.43;;;1.23;;
10458;SDS011;5277;48.722;8.736;2023-10-31T08:28:16;1.90;;;1.10;;
10458;SDS011;5277;48.722;8.736;2023-10-31T08:30:41;1.92;;;1.30;;
10458;SDS011;5277;48.722;8.736;2023-10-31T08:33:07;2.47;;;1.05;;
10458;SDS011;5277;48.722;8.736;2023-10-31T08:35:33;4.25;;;0.88;;
10458;SDS011;5277;48.722;8.736;2023-10-31T08:37:58;5.55;;;1.15;;
10458;SDS011;5277;48.722;8.736;2023-10-31T08:40:24;1.10;;;0.95;;
10458;SDS011;5277;48.722;8.736;2023-10-31T08:42:50;3.50;;;0.90;;
10458;SDS011;5277;48.722;8.736;2023-10-31T08:45:15;1.70;;;0.82;;
10458;SDS011;5277;48.722;8.736;2023-10-31T08:47:41;1.35;;;0.70;;
10458;SDS011;5277;48.722;8.736;2023-10-31T08:50:06;2.97;;;0.93;;
10458;SDS011;5277;48.722;8.736;2023-10-31T08:52:34;4.88;;;0.95;;
10458;SDS011;5277;48.722;8.736;2023-10-31T08:54:59;1.02;;;0.80;;
10458;SDS011;5277;48.722;8.736;2023-10-31T08:57:25;4.72;;;1.30;;
10458;SDS011;5277;48.722;8.736;2023-10-31T08:59:51;3.60;;;1.10;;
10458;SDS011;5277;48.722;8.736;2023-10-31T09:02:16;4.00;;;1.25;;
10458;SDS011;5277;48.722;8.736;2023-10-31T09:04:42;5.07;;;1.10;;
10458;SDS011;5277;48.722;8.736;2023-10-31T09:07:07;4.13;;;1.45;;
10458;SDS011;5277;48.722;8.736;2023-10-31T09:09:36;2.35;;;1.00;;
10458;SDS011;5277;48.722;8.736;2023-10-31T09:12:01;5.75;;;1.27;;
10458;SDS011;5277;48.722;8.736;2023-10-31T09:14:27;5.68;;;1.00;;
10458;SDS011;5277;48.722;8.736;2023-10-31T09:16:52;4.63;;;1.10;;
10458;SDS011;5277;48.722;8.736;2023-10-31T09:19:18;1.88;;;0.90;;
10458;SDS011;5277;48.722;8.736;2023-10-31T09:21:44;2.58;;;0.98;;
10458;SDS011;5277;48.722;8.736;2023-10-31T09:24:10;1.55;;;0.98;;
10458;SDS011;5277;48.722;8.736;2023-10-31T09:26:36;4.30;;;0.93;;
10458;SDS011;5277;48.722;8.736;2023-10-31T09:29:05;1.35;;;0.85;;
10458;SDS011;5277;48.722;8.736;2023-10-31T09:31:31;4.55;;;1.00;;
10458;SDS011;5277;48.722;8.736;2023-10-31T09:33:57;1.65;;;1.05;;
10458;SDS011;5277;48.722;8.736;2023-10-31T09:36:25;2.25;;;0.93;;
10458;SDS011;5277;48.722;8.736;2023-10-31T09:38:51;2.53;;;0.95;;
10458;SDS011;5277;48.722;8.736;2023-10-31T09:41:16;4.63;;;1.02;;
10458;SDS011;5277;48.722;8.736;2023-10-31T09:43:43;3.75;;;1.30;;
10458;SDS011;5277;48.722;8.736;2023-10-31T09:46:09;4.38;;;1.13;;
10458;SDS011;5277;48.722;8.736;2023-10-31T09:48:35;3.03;;;1.27;;
10458;SDS011;5277;48.722;8.736;2023-10-31T09:51:01;3.08;;;1.30;;
10458;SDS011;5277;48.722;8.736;2023-10-31T09:53:27;3.50;;;1.50;;
10458;SDS011;5277;48.722;8.736;2023-10-31T09:55:54;2.65;;;1.33;;
10458;SDS011;5277;48.722;8.736;2023-10-31T09:58:22;3.30;;;0.90;;
10458;SDS011;5277;48.722;8.736;2023-10-31T10:00:47;4.30;;;1.00;;
10458;SDS011;5277;48.722;8.736;2023-10-31T10:03:16;3.70;;;1.38;;
10458;SDS011;5277;48.722;8.736;2023-10-31T10:05:43;3.15;;;1.00;;
10458;SDS011;5277;48.722;8.736;2023-10-31T10:08:10;1.30;;;0.60;;
10458;SDS011;5277;48.722;8.736;2023-10-31T10:10:36;5.18;;;1.27;;
10458;SDS011;5277;48.722;8.736;2023-10-31T10:13:04;3.72;;;1.35;;
10458;SDS011;5277;48.722;8.736;2023-10-31T10:15:30;5.70;;;1.00;;
10458;SDS011;5277;48.722;8.736;2023-10-31T10:18:28;4.72;;;1.23;;
10458;SDS011;5277;48.722;8.736;2023-10-31T10:21:00;2.15;;;0.70;;
10458;SDS011;5277;48.722;8.736;2023-10-31T10:23:29;4.00;;;2.20;;
10458;SDS011;5277;48.722;8.736;2023-10-31T10:25:58;3.83;;;1.15;;
10458;SDS011;5277;48.722;8.736;2023-10-31T10:28:25;5.32;;;1.48;;
10458;SDS011;5277;48.722;8.736;2023-10-31T10:30:51;1.00;;;0.77;;
10458;SDS011;5277;48.722;8.736;2023-10-31T10:33:20;2.80;;;0.60;;
10458;SDS011;5277;48.722;8.736;2023-10-31T10:35:47;3.03;;;0.43;;
10458;SDS011;5277;48.722;8.736;2023-10-31T10:38:13;3.50;;;0.75;;
10458;SDS011;5277;48.722;8.736;2023-10-31T10:40:46;1.55;;;0.70;;
10458;SDS011;5277;48.722;8.736;2023-10-31T10:43:23;1.50;;;0.70;;
10458;SDS011;5277;48.722;8.736;2023-10-31T10:45:57;1.17;;;0.75;;
10458;SDS011;5277;48.722;8.736;2023-10-31T10:48:24;1.00;;;0.80;;
10458;SDS011;5277;48.722;8.736;2023-10-31T10:50:55;1.27;;;0.50;;
10458;SDS011;5277;48.722;8.736;2023-10-31T10:53:32;0.63;;;0.40;;
10458;SDS011;5277;48.722;8.736;2023-10-31T10:56:07;0.73;;;0.55;;
10458;SDS011;5277;48.722;8.736;2023-10-31T10:58:50;2.65;;;0.50;;
10458;SDS011;5277;48.722;8.736;2023-10-31T11:01:19;1.40;;;0.60;;
10458;SDS011;5277;48.722;8.736;2023-10-31T11:03:45;0.60;;;0.30;;
10458;SDS011;5277;48.722;8.736;2023-10-31T11:06:12;0.63;;;0.45;;
10458;SDS011;5277;48.722;8.736;2023-10-31T11:08:39;1.63;;;0.57;;
10458;SDS011;5277;48.722;8.736;2023-10-31T11:11:05;0.30;;;0.20;;
10458;SDS011;5277;48.722;8.736;2023-10-31T11:13:31;0.32;;;0.30;;
10458;SDS011;5277;48.722;8.736;2023-10-31T11:15:59;0.20;;;0.20;;
10458;SDS011;5277;48.722;8.736;2023-10-31T11:18:32;1.52;;;0.30;;
10458;SDS011;5277;48.722;8.736;2023-10-31T11:20:58;0.63;;;0.22;;
10458;SDS011;5277;48.722;8.736;2023-10-31T11:23:23;0.88;;;0.40;;
10458;SDS011;5277;48.722;8.736;2023-10-31T11:25:49;0.50;;;0.40;;
10458;SDS011;5277;48.722;8.736;2023-10-31T11:28:19;0.77;;;0.50;;
10458;SDS011;5277;48.722;8.736;2023-10-31T11:30:48;0.45;;;0.32;;
10458;SDS011;5277;48.722;8.736;2023-10-31T11:33:15;2.08;;;0.40;;
10458;SDS011;5277;48.722;8.736;2023-10-31T11:35:44;1.27;;;0.40;;
10458;SDS011;5277;48.722;8.736;2023-10-31T11:38:15;1.08;;;0.32;;
10458;SDS011;5277;48.722;8.736;2023-10-31T11:43:09;2.58;;;0.60;;
10458;SDS011;5277;48.722;8.736;2023-10-31T11:45:37;1.77;;;0.50;;
10458;SDS011;5277;48.722;8.736;2023-10-31T11:48:07;0.57;;;0.47;;
10458;SDS011;5277;48.722;8.736;2023-10-31T11:50:35;0.82;;;0.40;;
10458;SDS011;5277;48.722;8.736;2023-10-31T11:53:05;1.00;;;0.40;;
10458;SDS011;5277;48.722;8.736;2023-10-31T11:55:36;1.17;;;0.50;;
10458;SDS011;5277;48.722;8.736;2023-10-31T11:58:12;1.10;;;0.40;;
10458;SDS011;5277;48.722;8.736;2023-10-31T12:00:43;1.00;;;0.35;;
10458;SDS011;5277;48.722;8.736;2023-10-31T12:03:10;4.50;;;1.02;;
10458;SDS011;5277;48.722;8.736;2023-10-31T12:05:36;1.25;;;0.50;;
10458;SDS011;5277;48.722;8.736;2023-10-31T12:08:01;1.33;;;0.70;;
10458;SDS011;5277;48.722;8.736;2023-10-31T12:10:28;1.08;;;0.50;;
10458;SDS011;5277;48.722;8.736;2023-10-31T12:12:57;1.15;;;0.50;;
10458;SDS011;5277;48.722;8.736;2023-10-31T12:15:26;1.88;;;0.50;;
10458;SDS011;5277;48.722;8.736;2023-10-31T12:17:51;2.08;;;0.50;;
10458;SDS011;5277;48.722;8.736;2023-10-31T12:20:17;2.60;;;0.40;;
10458;SDS011;5277;48.722;8.736;2023-10-31T12:22:43;1.65;;;0.60;;
10458;SDS011;5277;48.722;8.736;2023-10-31T12:25:09;1.13;;;0.40;;
10458;SDS011;5277;48.722;8.736;2023-10-31T12:27:43;1.20;;;0.60;;
10458;SDS011;5277;48.722;8.736;2023-10-31T12:30:09;0.63;;;0.25;;
10458;SDS011;5277;48.722;8.736;2023-10-31T12:32:36;1.30;;;0.43;;
10458;SDS011;5277;48.722;8.736;2023-10-31T12:35:02;0.50;;;0.30;;
10458;SDS011;5277;48.722;8.736;2023-10-31T12:37:28;0.47;;;0.47;;
10458;SDS011;5277;48.722;8.736;2023-10-31T12:39:54;1.00;;;0.70;;
10458;SDS011;5277;48.722;8.736;2023-10-31T12:42:22;1.05;;;0.60;;
10458;SDS011;5277;48.722;8.736;2023-10-31T12:44:54;0.60;;;0.50;;
10458;SDS011;5277;48.722;8.736;2023-10-31T12:47:23;1.00;;;0.47;;
10458;SDS011;5277;48.722;8.736;2023-10-31T12:50:04;0.70;;;0.47;;
10458;SDS011;5277;48.722;8.736;2023-10-31T12:52:47;1.13;;;0.40;;
10458;SDS011;5277;48.722;8.736;2023-10-31T12:55:17;0.30;;;0.30;;
10458;SDS011;5277;48.722;8.736;2023-10-31T12:57:44;4.15;;;0.35;;
10458;SDS011;5277;48.722;8.736;2023-10-31T13:00:11;0.40;;;0.35;;
10458;SDS011;5277;48.722;8.736;2023-10-31T13:02:41;1.35;;;0.30;;
10458;SDS011;5277;48.722;8.736;2023-10-31T13:05:16;0.28;;;0.20;;
10458;SDS011;5277;48.722;8.736;2023-10-31T13:07:52;0.30;;;0.30;;
10458;SDS011;5277;48.722;8.736;2023-10-31T13:10:19;2.10;;;0.50;;
10458;SDS011;5277;48.722;8.736;2023-10-31T13:12:46;0.35;;;0.17;;
10458;SDS011;5277;48.722;8.736;2023-10-31T13:15:13;2.72;;;0.40;;
10458;SDS011;5277;48.722;8.736;2023-10-31T13:17:39;0.50;;;0.40;;
10458;SDS011;5277;48.722;8.736;2023-10-31T13:20:06;0.20;;;0.20;;
10458;SDS011;5277;48.722;8.736;2023-10-31T13:22:34;1.50;;;0.40;;
10458;SDS011;5277;48.722;8.736;2023-10-31T13:25:00;6.45;;;0.43;;
10458;SDS011;5277;48.722;8.736;2023-10-31T13:27:29;0.40;;;0.30;;
10458;SDS011;5277;48.722;8.736;2023-10-31T13:30:02;0.30;;;0.28;;
10458;SDS011;5277;48.722;8.736;2023-10-31T13:32:29;0.30;;;0.30;;
10458;SDS011;5277;48.722;8.736;2023-10-31T13:34:55;1.20;;;0.30;;
10458;SDS011;5277;48.722;8.736;2023-10-31T13:37:21;1.08;;;0.45;;
10458;SDS011;5277;48.722;8.736;2023-10-31T13:39:46;2.25;;;0.30;;
10458;SDS011;5277;48.722;8.736;2023-10-31T13:42:12;1.20;;;0.28;;
10458;SDS011;5277;48.722;8.736;2023-10-31T13:44:39;1.13;;;0.35;;
10458;SDS011;5277;48.722;8.736;2023-10-31T13:47:05;1.25;;;0.40;;
10458;SDS011;5277;48.722;8.736;2023-10-31T13:49:31;1.13;;;0.40;;
10458;SDS011;5277;48.722;8.736;2023-10-31T13:51:56;0.80;;;0.30;;
10458;SDS011;5277;48.722;8.736;2023-10-31T13:54:22;2.65;;;0.43;;
10458;SDS011;5277;48.722;8.736;2023-10-31T13:56:47;0.45;;;0.32;;
10458;SDS011;5277;48.722;8.736;2023-10-31T13:59:13;2.70;;;0.40;;
10458;SDS011;5277;48.722;8.736;2023-10-31T14:01:39;0.60;;;0.45;;
10458;SDS011;5277;48.722;8.736;2023-10-31T14:04:06;1.77;;;0.60;;
10458;SDS011;5277;48.722;8.736;2023-10-31T14:06:32;0.95;;;0.43;;
10458;SDS011;5277;48.722;8.736;2023-10-31T14:08:58;0.55;;;0.45;;
10458;SDS011;5277;48.722;8.736;2023-10-31T14:11:24;2.00;;;0.60;;
10458;SDS011;5277;48.722;8.736;2023-10-31T14:13:50;1.25;;;0.43;;
10458;SDS011;5277;48.722;8.736;2023-10-31T14:16:16;2.15;;;0.68;;
10458;SDS011;5277;48.722;8.736;2023-10-31T14:18:41;1.08;;;0.50;;
10458;SDS011;5277;48.722;8.736;2023-10-31T14:21:08;0.93;;;0.50;;
10458;SDS011;5277;48.722;8.736;2023-10-31T14:23:34;0.40;;;0.40;;
10458;SDS011;5277;48.722;8.736;2023-10-31T14:25:59;0.90;;;0.57;;
10458;SDS011;5277;48.722;8.736;2023-10-31T14:28:25;1.60;;;0.55;;
10458;SDS011;5277;48.722;8.736;2023-10-31T14:30:51;0.60;;;0.40;;
10458;SDS011;5277;48.722;8.736;2023-10-31T14:33:22;0.40;;;0.40;;
10458;SDS011;5277;48.722;8.736;2023-10-31T14:35:47;1.05;;;0.60;;
10458;SDS011;5277;48.722;8.736;2023-10-31T14:38:13;1.23;;;0.63;;
10458;SDS011;5277;48.722;8.736;2023-10-31T14:40:39;1.55;;;0.70;;
10458;SDS011;5277;48.722;8.736;2023-10-31T14:43:04;2.33;;;0.80;;
10458;SDS011;5277;48.722;8.736;2023-10-31T14:45:30;1.70;;;0.73;;
10458;SDS011;5277;48.722;8.736;2023-10-31T14:47:55;1.52;;;0.77;;
10458;SDS011;5277;48.722;8.736;2023-10-31T14:50:29;2.22;;;1.45;;
10458;SDS011;5277;48.722;8.736;2023-10-31T14:52:55;1.40;;;0.65;;
10458;SDS011;5277;48.722;8.736;2023-10-31T14:55:20;2.00;;;0.70;;
10458;SDS011;5277;48.722;8.736;2023-10-31T14:57:46;3.45;;;0.95;;
10458;SDS011;5277;48.722;8.736;2023-10-31T15:00:12;1.38;;;0.88;;
10458;SDS011;5277;48.722;8.736;2023-10-31T15:02:38;2.38;;;1.08;;
10458;SDS011;5277;48.722;8.736;2023-10-31T15:05:04;3.83;;;1.27;;
10458;SDS011;5277;48.722;8.736;2023-10-31T15:07:30;3.00;;;1.10;;
10458;SDS011;5277;48.722;8.736;2023-10-31T15:09:55;10.48;;;1.33;;
10458;SDS011;5277;48.722;8.736;2023-10-31T15:12:21;4.60;;;1.27;;
10458;SDS011;5277;48.722;8.736;2023-10-31T15:14:46;5.75;;;1.10;;
10458;SDS011;5277;48.722;8.736;2023-10-31T15:17:12;1.65;;;0.93;;
10458;SDS011;5277;48.722;8.736;2023-10-31T15:19:40;1.00;;;0.73;;
10458;SDS011;5277;48.722;8.736;2023-10-31T15:22:06;1.52;;;0.70;;
10458;SDS011;5277;48.722;8.736;2023-10-31T15:24:31;2.13;;;0.80;;
10458;SDS011;5277;48.722;8.736;2023-10-31T15:26:58;2.47;;;0.73;;
10458;SDS011;5277;48.722;8.736;2023-10-31T15:29:25;2.13;;;1.00;;
10458;SDS011;5277;48.722;8.736;2023-10-31T15:31:50;0.60;;;0.57;;
10458;SDS011;5277;48.722;8.736;2023-10-31T15:34:19;0.90;;;0.65;;
10458;SDS011;5277;48.722;8.736;2023-10-31T15:36:45;2.85;;;1.10;;
10458;SDS011;5277;48.722;8.736;2023-10-31T15:39:11;4.43;;;0.82;;
10458;SDS011;5277;48.722;8.736;2023-10-31T15:41:37;3.10;;;0.75;;
10458;SDS011;5277;48.722;8.736;2023-10-31T15:44:03;4.63;;;0.90;;
10458;SDS011;5277;48.722;8.736;2023-10-31T15:46:29;1.33;;;1.00;;
10458;SDS011;5277;48.722;8.736;2023-10-31T15:48:55;1.55;;;0.98;;
10458;SDS011;5277;48.722;8.736;2023-10-31T15:51:20;2.45;;;1.10;;
10458;SDS011;5277;48.722;8.736;2023-10-31T15:53:51;1.77;;;0.90;;
10458;SDS011;5277;48.722;8.736;2023-10-31T15:56:17;1.55;;;1.13;;
10458;SDS011;5277;48.722;8.736;2023-10-31T15:58:42;1.73;;;0.98;;
10458;SDS011;5277;48.722;8.736;2023-10-31T16:01:08;7.70;;;1.23;;
10458;SDS011;5277;48.722;8.736;2023-10-31T16:03:33;2.95;;;1.08;;
10458;SDS011;5277;48.722;8.736;2023-10-31T16:05:59;1.70;;;1.20;;
10458;SDS011;5277;48.722;8.736;2023-10-31T16:08:25;4.40;;;1.25;;
10458;SDS011;5277;48.722;8.736;2023-10-31T16:10:50;2.15;;;1.55;;